sensor_id;sensor_type;location;lat;lon;timestamp;P1;durP1;ratioP1;P2;durP2;ratioP2
77524;SDS011;66638;50.050;21.124;2023-07-31T00:02:10;5.00;;;3.70;;
77524;SDS011;66638;50.050;21.124;2023-07-31T00:04:57;7.10;;;3.50;;
77524;SDS011;66638;50.050;21.124;2023-07-31T00:07:44;5.10;;;3.40;;
77524;SDS011;66638;50.050;21.124;2023-07-31T00:10:31;6.00;;;3.70;;
77524;SDS011;66638;50.050;21.124;2023-07-31T00:13:20;6.80;;;3.50;;
77524;SDS011;66638;50.050;21.124;2023-07-31T00:16:08;5.70;;;3.40;;
77524;SDS011;66638;50.050;21.124;2023-07-31T00:18:55;5.40;;;3.60;;
77524;SDS011;66638;50.050;21.124;2023-07-31T00:21:43;5.40;;;3.60;;
77524;SDS011;66638;50.050;21.124;2023-07-31T00:24:30;5.00;;;3.40;;
77524;SDS011;66638;50.050;21.124;2023-07-31T00:27:18;5.00;;;3.10;;
77524;SDS011;66638;50.050;21.124;2023-07-31T00:30:05;4.30;;;3.00;;
77524;SDS011;66638;50.050;21.124;2023-07-31T00:32:53;6.90;;;3.20;;
77524;SDS011;66638;50.050;21.124;2023-07-31T00:35:40;7.30;;;3.90;;
77524;SDS011;66638;50.050;21.124;2023-07-31T00:38:27;8.10;;;3.70;;
77524;SDS011;66638;50.050;21.124;2023-07-31T00:41:14;5.70;;;3.70;;
77524;SDS011;66638;50.050;21.124;2023-07-31T00:44:01;4.90;;;3.30;;
77524;SDS011;66638;50.050;21.124;2023-07-31T00:46:48;5.80;;;3.40;;
77524;SDS011;66638;50.050;21.124;2023-07-31T00:49:35;4.80;;;3.30;;
77524;SDS011;66638;50.050;21.124;2023-07-31T00:52:23;7.70;;;4.10;;
77524;SDS011;66638;50.050;21.124;2023-07-31T00:55:13;6.90;;;4.40;;
77524;SDS011;66638;50.050;21.124;2023-07-31T00:58:01;6.60;;;3.90;;
77524;SDS011;66638;50.050;21.124;2023-07-31T01:00:49;6.80;;;4.10;;
77524;SDS011;66638;50.050;21.124;2023-07-31T01:03:37;6.90;;;4.10;;
77524;SDS011;66638;50.050;21.124;2023-07-31T01:06:35;6.10;;;4.30;;
77524;SDS011;66638;50.050;21.124;2023-07-31T01:09:43;6.60;;;4.30;;
77524;SDS011;66638;50.050;21.124;2023-07-31T01:12:32;7.30;;;4.80;;
77524;SDS011;66638;50.050;21.124;2023-07-31T01:15:21;7.50;;;4.40;;
77524;SDS011;66638;50.050;21.124;2023-07-31T01:18:08;6.60;;;4.70;;
77524;SDS011;66638;50.050;21.124;2023-07-31T01:21:02;8.60;;;5.10;;
77524;SDS011;66638;50.050;21.124;2023-07-31T01:24:08;8.20;;;4.80;;
77524;SDS011;66638;50.050;21.124;2023-07-31T01:27:14;7.40;;;4.60;;
77524;SDS011;66638;50.050;21.124;2023-07-31T01:30:09;7.20;;;4.40;;
77524;SDS011;66638;50.050;21.124;2023-07-31T01:33:02;10.60;;;5.00;;
77524;SDS011;66638;50.050;21.124;2023-07-31T01:35:54;7.80;;;4.40;;
77524;SDS011;66638;50.050;21.124;2023-07-31T01:38:42;7.20;;;4.30;;
77524;SDS011;66638;50.050;21.124;2023-07-31T01:41:29;8.50;;;3.90;;
77524;SDS011;66638;50.050;21.124;2023-07-31T01:44:16;6.10;;;3.60;;
77524;SDS011;66638;50.050;21.124;2023-07-31T01:47:04;6.40;;;3.70;;
77524;SDS011;66638;50.050;21.124;2023-07-31T01:49:53;7.00;;;4.00;;
77524;SDS011;66638;50.050;21.124;2023-07-31T01:52:40;6.20;;;3.60;;
77524;SDS011;66638;50.050;21.124;2023-07-31T01:55:29;7.50;;;3.90;;
77524;SDS011;66638;50.050;21.124;2023-07-31T01:58:16;6.10;;;4.00;;
77524;SDS011;66638;50.050;21.124;2023-07-31T02:01:03;10.60;;;4.50;;
77524;SDS011;66638;50.050;21.124;2023-07-31T02:03:50;6.60;;;4.80;;
77524;SDS011;66638;50.050;21.124;2023-07-31T02:06:37;7.00;;;4.20;;
77524;SDS011;66638;50.050;21.124;2023-07-31T02:09:27;5.40;;;4.20;;
77524;SDS011;66638;50.050;21.124;2023-07-31T02:12:14;6.30;;;4.00;;
77524;SDS011;66638;50.050;21.124;2023-07-31T02:15:01;7.00;;;4.30;;
77524;SDS011;66638;50.050;21.124;2023-07-31T02:17:49;6.40;;;4.00;;
77524;SDS011;66638;50.050;21.124;2023-07-31T02:20:36;6.60;;;3.60;;
77524;SDS011;66638;50.050;21.124;2023-07-31T02:23:23;8.70;;;4.40;;
77524;SDS011;66638;50.050;21.124;2023-07-31T02:26:10;6.70;;;4.30;;
77524;SDS011;66638;50.050;21.124;2023-07-31T02:28:57;6.40;;;4.10;;
77524;SDS011;66638;50.050;21.124;2023-07-31T02:31:44;8.10;;;4.90;;
77524;SDS011;66638;50.050;21.124;2023-07-31T02:34:31;8.40;;;5.10;;
77524;SDS011;66638;50.050;21.124;2023-07-31T02:37:18;8.30;;;4.90;;
77524;SDS011;66638;50.050;21.124;2023-07-31T02:40:07;8.80;;;5.10;;
77524;SDS011;66638;50.050;21.124;2023-07-31T02:42:55;5.80;;;3.60;;
77524;SDS011;66638;50.050;21.124;2023-07-31T02:45:42;7.30;;;3.90;;
77524;SDS011;66638;50.050;21.124;2023-07-31T02:48:29;8.40;;;4.30;;
77524;SDS011;66638;50.050;21.124;2023-07-31T02:51:16;6.70;;;4.00;;
77524;SDS011;66638;50.050;21.124;2023-07-31T02:54:03;6.10;;;3.40;;
77524;SDS011;66638;50.050;21.124;2023-07-31T02:56:51;7.00;;;3.50;;
77524;SDS011;66638;50.050;21.124;2023-07-31T02:59:38;10.50;;;4.20;;
77524;SDS011;66638;50.050;21.124;2023-07-31T03:02:25;5.90;;;3.60;;
77524;SDS011;66638;50.050;21.124;2023-07-31T03:05:12;6.50;;;4.20;;
77524;SDS011;66638;50.050;21.124;2023-07-31T03:07:59;7.20;;;4.10;;
77524;SDS011;66638;50.050;21.124;2023-07-31T03:10:46;8.20;;;4.60;;
77524;SDS011;66638;50.050;21.124;2023-07-31T03:13:33;8.30;;;4.70;;
77524;SDS011;66638;50.050;21.124;2023-07-31T03:16:20;7.40;;;4.20;;
77524;SDS011;66638;50.050;21.124;2023-07-31T03:19:07;6.40;;;4.10;;
77524;SDS011;66638;50.050;21.124;2023-07-31T03:21:54;8.40;;;4.40;;
77524;SDS011;66638;50.050;21.124;2023-07-31T03:24:41;6.10;;;4.00;;
77524;SDS011;66638;50.050;21.124;2023-07-31T03:27:29;9.00;;;5.10;;
77524;SDS011;66638;50.050;21.124;2023-07-31T03:30:16;7.60;;;4.20;;
77524;SDS011;66638;50.050;21.124;2023-07-31T03:33:03;6.30;;;4.50;;
77524;SDS011;66638;50.050;21.124;2023-07-31T03:35:50;6.30;;;4.40;;
77524;SDS011;66638;50.050;21.124;2023-07-31T03:38:37;7.00;;;4.30;;
77524;SDS011;66638;50.050;21.124;2023-07-31T03:41:24;6.90;;;4.80;;
77524;SDS011;66638;50.050;21.124;2023-07-31T03:44:11;7.70;;;5.00;;
77524;SDS011;66638;50.050;21.124;2023-07-31T03:46:58;8.00;;;4.70;;
77524;SDS011;66638;50.050;21.124;2023-07-31T03:49:45;8.40;;;4.90;;
77524;SDS011;66638;50.050;21.124;2023-07-31T03:52:33;7.10;;;4.50;;
77524;SDS011;66638;50.050;21.124;2023-07-31T03:55:20;9.60;;;5.40;;
77524;SDS011;66638;50.050;21.124;2023-07-31T03:58:08;6.50;;;4.20;;
77524;SDS011;66638;50.050;21.124;2023-07-31T04:00:55;7.40;;;4.60;;
77524;SDS011;66638;50.050;21.124;2023-07-31T04:03:43;6.80;;;4.10;;
77524;SDS011;66638;50.050;21.124;2023-07-31T04:06:29;6.10;;;3.60;;
77524;SDS011;66638;50.050;21.124;2023-07-31T04:09:17;5.30;;;3.80;;
77524;SDS011;66638;50.050;21.124;2023-07-31T04:12:04;4.60;;;3.60;;
77524;SDS011;66638;50.050;21.124;2023-07-31T04:14:51;5.40;;;3.50;;
77524;SDS011;66638;50.050;21.124;2023-07-31T04:17:38;6.00;;;4.00;;
77524;SDS011;66638;50.050;21.124;2023-07-31T04:20:25;5.50;;;3.30;;
77524;SDS011;66638;50.050;21.124;2023-07-31T04:23:12;6.00;;;2.90;;
77524;SDS011;66638;50.050;21.124;2023-07-31T04:25:59;6.20;;;3.20;;
77524;SDS011;66638;50.050;21.124;2023-07-31T04:28:46;6.60;;;3.00;;
77524;SDS011;66638;50.050;21.124;2023-07-31T04:31:33;7.60;;;3.60;;
77524;SDS011;66638;50.050;21.124;2023-07-31T04:34:20;5.50;;;3.30;;
77524;SDS011;66638;50.050;21.124;2023-07-31T04:37:07;4.80;;;3.60;;
77524;SDS011;66638;50.050;21.124;2023-07-31T04:39:54;4.70;;;3.00;;
77524;SDS011;66638;50.050;21.124;2023-07-31T04:42:41;6.00;;;3.40;;
77524;SDS011;66638;50.050;21.124;2023-07-31T04:45:29;5.30;;;3.10;;
77524;SDS011;66638;50.050;21.124;2023-07-31T04:48:16;5.30;;;3.30;;
77524;SDS011;66638;50.050;21.124;2023-07-31T04:51:03;5.00;;;3.50;;
77524;SDS011;66638;50.050;21.124;2023-07-31T04:53:50;5.70;;;3.10;;
77524;SDS011;66638;50.050;21.124;2023-07-31T04:56:39;6.00;;;3.10;;
77524;SDS011;66638;50.050;21.124;2023-07-31T04:59:27;4.00;;;2.80;;
77524;SDS011;66638;50.050;21.124;2023-07-31T05:02:16;5.20;;;3.00;;
77524;SDS011;66638;50.050;21.124;2023-07-31T05:05:03;5.00;;;3.30;;
77524;SDS011;66638;50.050;21.124;2023-07-31T05:07:52;4.40;;;3.10;;
77524;SDS011;66638;50.050;21.124;2023-07-31T05:10:41;6.20;;;3.30;;
77524;SDS011;66638;50.050;21.124;2023-07-31T05:13:31;4.90;;;3.10;;
77524;SDS011;66638;50.050;21.124;2023-07-31T05:16:20;4.20;;;3.10;;
77524;SDS011;66638;50.050;21.124;2023-07-31T05:19:09;4.70;;;3.00;;
77524;SDS011;66638;50.050;21.124;2023-07-31T05:21:56;5.00;;;3.10;;
77524;SDS011;66638;50.050;21.124;2023-07-31T05:24:43;6.30;;;3.40;;
77524;SDS011;66638;50.050;21.124;2023-07-31T05:27:31;7.40;;;3.70;;
77524;SDS011;66638;50.050;21.124;2023-07-31T05:30:19;5.40;;;3.30;;
77524;SDS011;66638;50.050;21.124;2023-07-31T05:33:07;5.40;;;3.50;;
77524;SDS011;66638;50.050;21.124;2023-07-31T05:35:55;4.70;;;3.00;;
77524;SDS011;66638;50.050;21.124;2023-07-31T05:38:42;4.50;;;3.20;;
77524;SDS011;66638;50.050;21.124;2023-07-31T05:41:30;5.10;;;3.70;;
77524;SDS011;66638;50.050;21.124;2023-07-31T05:44:17;5.80;;;3.60;;
77524;SDS011;66638;50.050;21.124;2023-07-31T05:47:05;5.40;;;3.40;;
77524;SDS011;66638;50.050;21.124;2023-07-31T05:49:52;4.90;;;3.00;;
77524;SDS011;66638;50.050;21.124;2023-07-31T05:52:39;5.40;;;3.30;;
77524;SDS011;66638;50.050;21.124;2023-07-31T05:55:27;5.30;;;3.30;;
77524;SDS011;66638;50.050;21.124;2023-07-31T05:58:14;5.90;;;3.40;;
77524;SDS011;66638;50.050;21.124;2023-07-31T06:01:02;5.30;;;3.20;;
77524;SDS011;66638;50.050;21.124;2023-07-31T06:03:49;5.00;;;3.00;;
77524;SDS011;66638;50.050;21.124;2023-07-31T06:06:36;5.00;;;3.30;;
77524;SDS011;66638;50.050;21.124;2023-07-31T06:09:23;4.30;;;3.30;;
77524;SDS011;66638;50.050;21.124;2023-07-31T06:12:11;7.80;;;3.40;;
77524;SDS011;66638;50.050;21.124;2023-07-31T06:14:58;4.60;;;3.10;;
77524;SDS011;66638;50.050;21.124;2023-07-31T06:17:45;6.00;;;3.30;;
77524;SDS011;66638;50.050;21.124;2023-07-31T06:20:33;4.90;;;3.70;;
77524;SDS011;66638;50.050;21.124;2023-07-31T06:23:21;8.30;;;4.30;;
77524;SDS011;66638;50.050;21.124;2023-07-31T06:26:08;7.20;;;4.40;;
77524;SDS011;66638;50.050;21.124;2023-07-31T06:28:56;9.10;;;5.30;;
77524;SDS011;66638;50.050;21.124;2023-07-31T06:31:42;11.50;;;4.70;;
77524;SDS011;66638;50.050;21.124;2023-07-31T06:34:30;6.60;;;5.00;;
77524;SDS011;66638;50.050;21.124;2023-07-31T06:37:18;6.40;;;4.40;;
77524;SDS011;66638;50.050;21.124;2023-07-31T06:40:06;6.90;;;4.40;;
77524;SDS011;66638;50.050;21.124;2023-07-31T06:42:55;6.70;;;4.00;;
77524;SDS011;66638;50.050;21.124;2023-07-31T06:45:42;8.10;;;3.60;;
77524;SDS011;66638;50.050;21.124;2023-07-31T06:48:30;4.90;;;2.90;;
77524;SDS011;66638;50.050;21.124;2023-07-31T06:51:17;5.90;;;3.20;;
77524;SDS011;66638;50.050;21.124;2023-07-31T06:54:04;5.70;;;3.80;;
77524;SDS011;66638;50.050;21.124;2023-07-31T06:56:52;6.90;;;4.00;;
77524;SDS011;66638;50.050;21.124;2023-07-31T06:59:41;8.20;;;3.90;;
77524;SDS011;66638;50.050;21.124;2023-07-31T07:02:28;5.20;;;3.00;;
77524;SDS011;66638;50.050;21.124;2023-07-31T07:05:17;5.50;;;3.90;;
77524;SDS011;66638;50.050;21.124;2023-07-31T07:08:05;5.80;;;4.00;;
77524;SDS011;66638;50.050;21.124;2023-07-31T07:10:52;6.20;;;4.30;;
77524;SDS011;66638;50.050;21.124;2023-07-31T07:13:38;5.10;;;4.10;;
77524;SDS011;66638;50.050;21.124;2023-07-31T07:16:28;7.00;;;3.70;;
77524;SDS011;66638;50.050;21.124;2023-07-31T07:19:15;5.60;;;3.50;;
77524;SDS011;66638;50.050;21.124;2023-07-31T07:22:03;5.40;;;4.10;;
77524;SDS011;66638;50.050;21.124;2023-07-31T07:24:50;5.90;;;4.30;;
77524;SDS011;66638;50.050;21.124;2023-07-31T07:27:38;7.40;;;4.70;;
77524;SDS011;66638;50.050;21.124;2023-07-31T07:30:25;6.60;;;4.60;;
77524;SDS011;66638;50.050;21.124;2023-07-31T07:33:12;6.00;;;4.00;;
77524;SDS011;66638;50.050;21.124;2023-07-31T07:36:01;6.00;;;4.40;;
77524;SDS011;66638;50.050;21.124;2023-07-31T07:38:57;9.30;;;5.00;;
77524;SDS011;66638;50.050;21.124;2023-07-31T07:41:44;19.60;;;6.90;;
77524;SDS011;66638;50.050;21.124;2023-07-31T07:44:32;8.40;;;4.10;;
77524;SDS011;66638;50.050;21.124;2023-07-31T07:47:19;8.10;;;4.40;;
77524;SDS011;66638;50.050;21.124;2023-07-31T07:50:06;5.40;;;3.90;;
77524;SDS011;66638;50.050;21.124;2023-07-31T07:52:54;9.70;;;4.30;;
77524;SDS011;66638;50.050;21.124;2023-07-31T07:55:42;8.00;;;4.40;;
77524;SDS011;66638;50.050;21.124;2023-07-31T07:58:29;7.60;;;4.40;;
77524;SDS011;66638;50.050;21.124;2023-07-31T08:01:17;5.90;;;4.50;;
77524;SDS011;66638;50.050;21.124;2023-07-31T08:04:04;11.60;;;5.30;;
77524;SDS011;66638;50.050;21.124;2023-07-31T08:06:51;16.70;;;5.80;;
77524;SDS011;66638;50.050;21.124;2023-07-31T08:09:39;6.60;;;4.20;;
77524;SDS011;66638;50.050;21.124;2023-07-31T08:12:31;7.50;;;4.40;;
77524;SDS011;66638;50.050;21.124;2023-07-31T08:15:18;12.80;;;4.60;;
77524;SDS011;66638;50.050;21.124;2023-07-31T08:18:06;12.10;;;5.40;;
77524;SDS011;66638;50.050;21.124;2023-07-31T08:20:54;5.40;;;4.00;;
77524;SDS011;66638;50.050;21.124;2023-07-31T08:23:41;6.70;;;3.60;;
77524;SDS011;66638;50.050;21.124;2023-07-31T08:26:29;6.40;;;3.90;;
77524;SDS011;66638;50.050;21.124;2023-07-31T08:29:16;5.50;;;3.40;;
77524;SDS011;66638;50.050;21.124;2023-07-31T08:32:03;5.50;;;3.50;;
77524;SDS011;66638;50.050;21.124;2023-07-31T08:34:51;4.70;;;3.80;;
77524;SDS011;66638;50.050;21.124;2023-07-31T08:37:38;5.30;;;3.70;;
77524;SDS011;66638;50.050;21.124;2023-07-31T08:40:26;5.20;;;4.00;;
77524;SDS011;66638;50.050;21.124;2023-07-31T08:43:15;5.30;;;3.90;;
77524;SDS011;66638;50.050;21.124;2023-07-31T08:46:02;6.30;;;4.70;;
77524;SDS011;66638;50.050;21.124;2023-07-31T08:48:49;10.90;;;4.80;;
77524;SDS011;66638;50.050;21.124;2023-07-31T08:51:38;5.00;;;3.90;;
77524;SDS011;66638;50.050;21.124;2023-07-31T08:54:26;4.40;;;4.00;;
77524;SDS011;66638;50.050;21.124;2023-07-31T08:57:17;16.60;;;6.70;;
77524;SDS011;66638;50.050;21.124;2023-07-31T09:00:05;5.70;;;4.20;;
77524;SDS011;66638;50.050;21.124;2023-07-31T09:06:03;9.00;;;4.70;;
77524;SDS011;66638;50.050;21.124;2023-07-31T09:08:53;10.20;;;4.20;;
77524;SDS011;66638;50.050;21.124;2023-07-31T09:11:40;11.00;;;5.30;;
77524;SDS011;66638;50.050;21.124;2023-07-31T09:14:27;5.00;;;4.20;;
77524;SDS011;66638;50.050;21.124;2023-07-31T09:17:15;14.50;;;4.80;;
77524;SDS011;66638;50.050;21.124;2023-07-31T09:20:25;5.20;;;3.80;;
77524;SDS011;66638;50.050;21.124;2023-07-31T09:23:13;6.30;;;3.80;;
77524;SDS011;66638;50.050;21.124;2023-07-31T09:26:00;4.60;;;3.50;;
77524;SDS011;66638;50.050;21.124;2023-07-31T09:28:47;4.10;;;3.30;;
77524;SDS011;66638;50.050;21.124;2023-07-31T09:31:38;5.30;;;3.80;;
77524;SDS011;66638;50.050;21.124;2023-07-31T09:34:36;6.70;;;3.20;;
77524;SDS011;66638;50.050;21.124;2023-07-31T09:37:26;4.90;;;3.30;;
77524;SDS011;66638;50.050;21.124;2023-07-31T09:43:26;5.80;;;3.40;;
77524;SDS011;66638;50.050;21.124;2023-07-31T09:46:15;4.90;;;3.30;;
77524;SDS011;66638;50.050;21.124;2023-07-31T09:49:06;4.00;;;3.10;;
77524;SDS011;66638;50.050;21.124;2023-07-31T09:51:56;3.60;;;3.00;;
77524;SDS011;66638;50.050;21.124;2023-07-31T09:54:44;4.70;;;3.20;;
77524;SDS011;66638;50.050;21.124;2023-07-31T09:57:31;6.20;;;3.80;;
77524;SDS011;66638;50.050;21.124;2023-07-31T10:00:20;4.90;;;3.60;;
77524;SDS011;66638;50.050;21.124;2023-07-31T10:03:10;5.80;;;3.90;;
77524;SDS011;66638;50.050;21.124;2023-07-31T10:05:58;6.60;;;3.70;;
77524;SDS011;66638;50.050;21.124;2023-07-31T10:08:47;5.90;;;4.00;;
77524;SDS011;66638;50.050;21.124;2023-07-31T10:11:37;3.80;;;3.10;;
77524;SDS011;66638;50.050;21.124;2023-07-31T10:14:27;6.40;;;4.20;;
77524;SDS011;66638;50.050;21.124;2023-07-31T10:17:16;6.20;;;3.80;;
77524;SDS011;66638;50.050;21.124;2023-07-31T10:20:04;5.30;;;4.40;;
77524;SDS011;66638;50.050;21.124;2023-07-31T10:22:54;6.60;;;4.30;;
77524;SDS011;66638;50.050;21.124;2023-07-31T10:25:42;5.20;;;3.90;;
77524;SDS011;66638;50.050;21.124;2023-07-31T10:28:30;5.60;;;3.70;;
77524;SDS011;66638;50.050;21.124;2023-07-31T10:31:21;6.10;;;3.80;;
77524;SDS011;66638;50.050;21.124;2023-07-31T10:34:08;5.00;;;3.60;;
77524;SDS011;66638;50.050;21.124;2023-07-31T10:40:10;5.40;;;4.50;;
77524;SDS011;66638;50.050;21.124;2023-07-31T10:43:07;6.70;;;4.40;;
77524;SDS011;66638;50.050;21.124;2023-07-31T10:45:57;6.10;;;3.70;;
77524;SDS011;66638;50.050;21.124;2023-07-31T10:48:45;5.10;;;3.60;;
77524;SDS011;66638;50.050;21.124;2023-07-31T10:51:33;8.20;;;5.00;;
77524;SDS011;66638;50.050;21.124;2023-07-31T10:54:22;5.30;;;3.80;;
77524;SDS011;66638;50.050;21.124;2023-07-31T10:57:19;7.70;;;4.10;;
77524;SDS011;66638;50.050;21.124;2023-07-31T11:03:16;7.10;;;4.60;;
77524;SDS011;66638;50.050;21.124;2023-07-31T11:06:04;6.80;;;4.10;;
77524;SDS011;66638;50.050;21.124;2023-07-31T11:08:51;6.60;;;4.10;;
77524;SDS011;66638;50.050;21.124;2023-07-31T11:11:39;4.80;;;3.40;;
77524;SDS011;66638;50.050;21.124;2023-07-31T11:14:26;6.20;;;3.70;;
77524;SDS011;66638;50.050;21.124;2023-07-31T11:17:14;5.90;;;4.10;;
77524;SDS011;66638;50.050;21.124;2023-07-31T11:20:10;4.90;;;3.80;;
77524;SDS011;66638;50.050;21.124;2023-07-31T11:23:01;7.20;;;4.00;;
77524;SDS011;66638;50.050;21.124;2023-07-31T11:25:50;8.60;;;4.20;;
77524;SDS011;66638;50.050;21.124;2023-07-31T11:28:37;5.30;;;3.40;;
77524;SDS011;66638;50.050;21.124;2023-07-31T11:31:25;5.00;;;3.40;;
77524;SDS011;66638;50.050;21.124;2023-07-31T11:34:12;5.00;;;3.80;;
77524;SDS011;66638;50.050;21.124;2023-07-31T11:36:59;6.60;;;3.70;;
77524;SDS011;66638;50.050;21.124;2023-07-31T11:42:57;4.60;;;3.30;;
77524;SDS011;66638;50.050;21.124;2023-07-31T11:45:46;4.30;;;2.60;;
77524;SDS011;66638;50.050;21.124;2023-07-31T11:48:36;4.20;;;2.90;;
77524;SDS011;66638;50.050;21.124;2023-07-31T11:51:24;5.30;;;2.90;;
77524;SDS011;66638;50.050;21.124;2023-07-31T11:54:12;4.90;;;2.90;;
77524;SDS011;66638;50.050;21.124;2023-07-31T11:57:01;4.70;;;2.70;;
77524;SDS011;66638;50.050;21.124;2023-07-31T11:59:49;5.10;;;3.20;;
77524;SDS011;66638;50.050;21.124;2023-07-31T12:02:38;6.40;;;2.70;;
77524;SDS011;66638;50.050;21.124;2023-07-31T12:05:27;3.50;;;2.50;;
77524;SDS011;66638;50.050;21.124;2023-07-31T12:08:15;4.70;;;2.90;;
77524;SDS011;66638;50.050;21.124;2023-07-31T12:11:04;8.30;;;3.80;;
77524;SDS011;66638;50.050;21.124;2023-07-31T12:13:53;4.70;;;2.70;;
77524;SDS011;66638;50.050;21.124;2023-07-31T12:16:41;8.20;;;3.70;;
77524;SDS011;66638;50.050;21.124;2023-07-31T12:19:29;4.60;;;2.90;;
77524;SDS011;66638;50.050;21.124;2023-07-31T12:22:17;9.70;;;3.30;;
77524;SDS011;66638;50.050;21.124;2023-07-31T12:25:06;5.20;;;2.80;;
77524;SDS011;66638;50.050;21.124;2023-07-31T12:27:54;6.40;;;2.80;;
77524;SDS011;66638;50.050;21.124;2023-07-31T12:30:41;6.10;;;3.40;;
77524;SDS011;66638;50.050;21.124;2023-07-31T12:33:32;5.50;;;3.00;;
77524;SDS011;66638;50.050;21.124;2023-07-31T12:36:21;10.00;;;3.90;;
77524;SDS011;66638;50.050;21.124;2023-07-31T12:39:10;10.40;;;3.60;;
77524;SDS011;66638;50.050;21.124;2023-07-31T12:41:57;7.20;;;3.40;;
77524;SDS011;66638;50.050;21.124;2023-07-31T12:44:45;22.60;;;5.00;;
77524;SDS011;66638;50.050;21.124;2023-07-31T12:47:32;13.80;;;3.60;;
77524;SDS011;66638;50.050;21.124;2023-07-31T12:50:19;8.00;;;3.50;;
77524;SDS011;66638;50.050;21.124;2023-07-31T12:53:06;9.20;;;3.80;;
77524;SDS011;66638;50.050;21.124;2023-07-31T12:55:54;5.20;;;3.10;;
77524;SDS011;66638;50.050;21.124;2023-07-31T12:58:42;6.80;;;3.10;;
77524;SDS011;66638;50.050;21.124;2023-07-31T13:01:30;4.80;;;3.10;;
77524;SDS011;66638;50.050;21.124;2023-07-31T13:04:18;3.90;;;2.50;;
77524;SDS011;66638;50.050;21.124;2023-07-31T13:07:05;5.40;;;2.70;;
77524;SDS011;66638;50.050;21.124;2023-07-31T13:09:53;7.30;;;3.20;;
77524;SDS011;66638;50.050;21.124;2023-07-31T13:12:40;4.80;;;3.00;;
77524;SDS011;66638;50.050;21.124;2023-07-31T13:15:27;6.20;;;3.20;;
77524;SDS011;66638;50.050;21.124;2023-07-31T13:18:14;8.60;;;3.40;;
77524;SDS011;66638;50.050;21.124;2023-07-31T13:21:02;6.60;;;3.10;;
77524;SDS011;66638;50.050;21.124;2023-07-31T13:23:49;4.70;;;3.30;;
77524;SDS011;66638;50.050;21.124;2023-07-31T13:26:36;6.10;;;3.00;;
77524;SDS011;66638;50.050;21.124;2023-07-31T13:29:24;9.10;;;3.50;;
77524;SDS011;66638;50.050;21.124;2023-07-31T13:32:11;31.40;;;5.60;;
77524;SDS011;66638;50.050;21.124;2023-07-31T13:34:58;6.00;;;3.10;;
77524;SDS011;66638;50.050;21.124;2023-07-31T13:37:46;4.40;;;2.70;;
77524;SDS011;66638;50.050;21.124;2023-07-31T13:40:33;14.60;;;4.30;;
77524;SDS011;66638;50.050;21.124;2023-07-31T13:43:20;8.40;;;3.20;;
77524;SDS011;66638;50.050;21.124;2023-07-31T13:46:08;7.00;;;3.20;;
77524;SDS011;66638;50.050;21.124;2023-07-31T13:48:58;14.40;;;4.50;;
77524;SDS011;66638;50.050;21.124;2023-07-31T13:51:47;10.80;;;3.50;;
77524;SDS011;66638;50.050;21.124;2023-07-31T13:54:34;10.10;;;3.00;;
77524;SDS011;66638;50.050;21.124;2023-07-31T13:57:21;4.70;;;2.70;;
77524;SDS011;66638;50.050;21.124;2023-07-31T14:00:10;6.40;;;3.30;;
77524;SDS011;66638;50.050;21.124;2023-07-31T14:02:58;4.40;;;3.20;;
77524;SDS011;66638;50.050;21.124;2023-07-31T14:05:45;6.40;;;3.00;;
77524;SDS011;66638;50.050;21.124;2023-07-31T14:08:32;7.10;;;2.80;;
77524;SDS011;66638;50.050;21.124;2023-07-31T14:11:19;5.50;;;2.30;;
77524;SDS011;66638;50.050;21.124;2023-07-31T14:14:08;10.10;;;3.40;;
77524;SDS011;66638;50.050;21.124;2023-07-31T14:16:56;11.40;;;3.30;;
77524;SDS011;66638;50.050;21.124;2023-07-31T14:19:43;5.40;;;2.70;;
77524;SDS011;66638;50.050;21.124;2023-07-31T14:22:30;6.10;;;2.50;;
77524;SDS011;66638;50.050;21.124;2023-07-31T14:25:20;7.40;;;3.10;;
77524;SDS011;66638;50.050;21.124;2023-07-31T14:28:07;7.20;;;2.20;;
77524;SDS011;66638;50.050;21.124;2023-07-31T14:30:54;3.60;;;2.40;;
77524;SDS011;66638;50.050;21.124;2023-07-31T14:33:41;5.10;;;2.40;;
77524;SDS011;66638;50.050;21.124;2023-07-31T14:36:29;4.70;;;2.70;;
77524;SDS011;66638;50.050;21.124;2023-07-31T14:39:16;4.80;;;2.50;;
77524;SDS011;66638;50.050;21.124;2023-07-31T14:42:03;5.90;;;2.30;;
77524;SDS011;66638;50.050;21.124;2023-07-31T14:44:50;5.90;;;2.60;;
77524;SDS011;66638;50.050;21.124;2023-07-31T14:47:37;5.70;;;2.50;;
77524;SDS011;66638;50.050;21.124;2023-07-31T14:50:25;4.10;;;2.90;;
77524;SDS011;66638;50.050;21.124;2023-07-31T14:53:12;6.30;;;2.50;;
77524;SDS011;66638;50.050;21.124;2023-07-31T14:56:00;10.40;;;3.30;;
77524;SDS011;66638;50.050;21.124;2023-07-31T14:58:47;15.60;;;3.30;;
77524;SDS011;66638;50.050;21.124;2023-07-31T15:01:35;8.20;;;2.40;;
77524;SDS011;66638;50.050;21.124;2023-07-31T15:04:22;17.40;;;3.30;;
77524;SDS011;66638;50.050;21.124;2023-07-31T15:07:10;4.40;;;2.40;;
77524;SDS011;66638;50.050;21.124;2023-07-31T15:09:57;7.80;;;3.50;;
77524;SDS011;66638;50.050;21.124;2023-07-31T15:12:44;8.70;;;3.00;;
77524;SDS011;66638;50.050;21.124;2023-07-31T15:15:31;6.90;;;3.00;;
77524;SDS011;66638;50.050;21.124;2023-07-31T15:18:19;5.10;;;2.30;;
77524;SDS011;66638;50.050;21.124;2023-07-31T15:21:06;5.60;;;3.00;;
77524;SDS011;66638;50.050;21.124;2023-07-31T15:23:55;6.00;;;2.90;;
77524;SDS011;66638;50.050;21.124;2023-07-31T15:26:43;6.80;;;2.30;;
77524;SDS011;66638;50.050;21.124;2023-07-31T15:29:30;9.10;;;2.80;;
77524;SDS011;66638;50.050;21.124;2023-07-31T15:32:18;5.80;;;3.10;;
77524;SDS011;66638;50.050;21.124;2023-07-31T15:35:06;6.60;;;2.70;;
77524;SDS011;66638;50.050;21.124;2023-07-31T15:37:54;6.00;;;2.50;;
77524;SDS011;66638;50.050;21.124;2023-07-31T15:40:42;4.70;;;2.60;;
77524;SDS011;66638;50.050;21.124;2023-07-31T15:43:30;7.60;;;2.30;;
77524;SDS011;66638;50.050;21.124;2023-07-31T15:46:17;5.10;;;2.80;;
77524;SDS011;66638;50.050;21.124;2023-07-31T15:49:05;3.10;;;2.10;;
77524;SDS011;66638;50.050;21.124;2023-07-31T15:51:53;6.90;;;2.70;;
77524;SDS011;66638;50.050;21.124;2023-07-31T15:54:41;4.10;;;2.50;;
77524;SDS011;66638;50.050;21.124;2023-07-31T15:57:28;3.90;;;2.40;;
77524;SDS011;66638;50.050;21.124;2023-07-31T16:00:15;3.70;;;2.40;;
77524;SDS011;66638;50.050;21.124;2023-07-31T16:03:03;3.60;;;2.40;;
77524;SDS011;66638;50.050;21.124;2023-07-31T16:05:58;5.40;;;2.70;;
77524;SDS011;66638;50.050;21.124;2023-07-31T16:08:45;4.40;;;2.30;;
77524;SDS011;66638;50.050;21.124;2023-07-31T16:11:33;5.10;;;2.40;;
77524;SDS011;66638;50.050;21.124;2023-07-31T16:14:20;4.50;;;2.40;;
77524;SDS011;66638;50.050;21.124;2023-07-31T16:17:08;6.20;;;2.60;;
77524;SDS011;66638;50.050;21.124;2023-07-31T16:19:55;4.40;;;2.60;;
77524;SDS011;66638;50.050;21.124;2023-07-31T16:22:42;6.30;;;2.40;;
77524;SDS011;66638;50.050;21.124;2023-07-31T16:25:29;4.50;;;2.50;;
77524;SDS011;66638;50.050;21.124;2023-07-31T16:28:17;4.30;;;2.20;;
77524;SDS011;66638;50.050;21.124;2023-07-31T16:31:04;6.90;;;2.80;;
77524;SDS011;66638;50.050;21.124;2023-07-31T16:33:52;5.20;;;2.30;;
77524;SDS011;66638;50.050;21.124;2023-07-31T16:36:39;3.80;;;2.10;;
77524;SDS011;66638;50.050;21.124;2023-07-31T16:39:26;4.10;;;2.80;;
77524;SDS011;66638;50.050;21.124;2023-07-31T16:42:14;5.80;;;2.70;;
77524;SDS011;66638;50.050;21.124;2023-07-31T16:45:01;5.10;;;2.60;;
77524;SDS011;66638;50.050;21.124;2023-07-31T16:47:49;5.10;;;2.40;;
77524;SDS011;66638;50.050;21.124;2023-07-31T16:50:36;4.60;;;2.20;;
77524;SDS011;66638;50.050;21.124;2023-07-31T16:53:23;5.00;;;2.50;;